Time;durP1;ratioP1;P1;durP2;ratioP2;P2;SDS_P1;SDS_P2;PMS_P1;PMS_P2;Temp;Humidity;BMP_temperature;BMP_pressure;BME280_temperature;BME280_humidity;BME280_pressure;Samples;Min_cycle;Max_cycle;Signal;HPM_P1;HPM_P2
2023/09/11 00:00:51;;;;;;;22.15;11.18;;;20.20;99.90;;;;;;5089567;28;20028;-46
2023/09/11 00:03:17;;;;;;;20.10;9.95;;;20.10;99.90;;;;;;5089348;28;20107;-55
2023/09/11 00:05:43;;;;;;;31.45;11.18;;;19.80;99.90;;;;;;5089504;28;20047;-53
2023/09/11 00:08:10;;;;;;;19.95;9.85;;;19.10;99.90;;;;;;5089319;28;20020;-48
2023/09/11 00:10:36;;;;;;;18.58;9.32;;;19.70;99.90;;;;;;5089969;28;20438;-57
2023/09/11 00:13:01;;;;;;;20.17;10.32;;;20.50;99.90;;;;;;5089599;28;20116;-60
2023/09/11 00:15:27;;;;;;;17.05;8.73;;;19.20;99.90;;;;;;5089579;28;20082;-56
2023/09/11 00:17:52;;;;;;;19.80;9.25;;;19.90;99.90;;;;;;5089615;28;20027;-55
2023/09/11 00:20:18;;;;;;;17.88;8.90;;;19.30;99.90;;;;;;5090007;28;20059;-52
2023/09/11 00:22:44;;;;;;;20.08;9.18;;;21.20;99.90;;;;;;5089718;28;20107;-44
2023/09/11 00:25:09;;;;;;;20.80;8.90;;;21.00;99.90;;;;;;5089542;28;20415;-49
2023/09/11 00:27:36;;;;;;;15.65;8.27;;;21.10;99.90;;;;;;5089794;28;20036;-50
2023/09/11 00:30:03;;;;;;;17.63;8.70;;;15.70;99.90;;;;;;5089905;28;20032;-56
2023/09/11 00:32:29;;;;;;;21.13;9.48;;;;;;;;;;5091844;28;20055;-51
2023/09/11 00:34:54;;;;;;;19.10;9.68;;;20.00;99.90;;;;;;5093570;28;20365;-57
2023/09/11 00:37:20;;;;;;;20.73;9.88;;;19.60;99.90;;;;;;5093070;28;20054;-54
2023/09/11 00:39:45;;;;;;;20.98;9.40;;;19.80;99.90;;;;;;5093754;28;20024;-58
2023/09/11 00:42:11;;;;;;;17.92;8.63;;;;;;;;;;5093003;28;20036;-48
2023/09/11 00:44:37;;;;;;;19.73;8.75;;;20.00;99.90;;;;;;5093303;28;20040;-50
2023/09/11 00:47:02;;;;;;;17.83;8.32;;;19.90;99.90;;;;;;5093488;28;20024;-45
2023/09/11 00:49:28;;;;;;;22.15;9.10;;;18.30;99.90;;;;;;5093153;28;20388;-50
2023/09/11 00:51:55;;;;;;;22.80;9.98;;;15.30;99.90;;;;;;5093413;28;20028;-45
2023/09/11 00:54:23;;;;;;;21.27;10.13;;;18.70;99.90;;;;;;5092892;28;20427;-44
2023/09/11 00:56:49;;;;;;;21.35;8.68;;;16.70;99.90;;;;;;5092999;28;20066;-44
2023/09/11 00:59:15;;;;;;;20.52;10.07;;;19.40;99.90;;;;;;5092181;28;20059;-45
2023/09/11 01:01:42;;;;;;;18.35;9.55;;;18.60;99.90;;;;;;5093164;28;20060;-50
2023/09/11 01:04:08;;;;;;;21.10;10.68;;;15.20;99.90;;;;;;5092987;28;20032;-56
2023/09/11 01:06:34;;;;;;;16.30;9.85;;;20.70;99.90;;;;;;5093249;28;20073;-51
2023/09/11 01:09:02;;;;;;;21.48;10.55;;;18.80;99.90;;;;;;5092735;28;20028;-49
2023/09/11 01:11:27;;;;;;;26.35;10.63;;;17.30;99.90;;;;;;5093323;28;20031;-53
2023/09/11 01:13:54;;;;;;;23.13;11.13;;;15.90;99.90;;;;;;5093031;28;20036;-57
2023/09/11 01:16:38;;;;;;;22.00;10.13;;;18.50;99.90;;;;;;5092623;28;20032;-59
2023/09/11 01:19:48;;;;;;;21.92;10.70;;;18.90;99.90;;;;;;5073340;28;20032;-53
2023/09/11 01:22:56;;;;;;;19.33;9.57;;;18.30;99.90;;;;;;5079120;28;20035;-60
2023/09/11 01:25:40;;;;;;;17.73;9.10;;;19.60;99.90;;;;;;5092278;28;20046;-52
2023/09/11 01:28:30;;;;;;;24.48;9.63;;;18.80;99.90;;;;;;5092302;28;20039;-54
2023/09/11 01:30:59;;;;;;;21.85;9.68;;;18.30;99.90;;;;;;5082706;28;20024;-56
2023/09/11 01:33:24;;;;;;;20.83;10.02;;;16.80;99.90;;;;;;5092647;28;20028;-56
2023/09/11 01:35:51;;;;;;;22.90;9.75;;;19.80;99.90;;;;;;5092131;28;20024;-56
2023/09/11 01:38:17;;;;;;;18.52;9.43;;;19.10;99.90;;;;;;5091042;28;20162;-61
2023/09/11 01:40:45;;;;;;;24.77;10.65;;;18.50;99.90;;;;;;5092312;28;20513;-51
2023/09/11 01:43:13;;;;;;;19.30;9.60;;;19.40;99.90;;;;;;5091507;28;20040;-52
2023/09/11 01:45:40;;;;;;;20.17;10.30;;;20.50;99.90;;;;;;5092173;28;20031;-54
2023/09/11 01:48:08;;;;;;;19.88;10.60;;;19.50;99.90;;;;;;5092009;28;20020;-50
2023/09/11 01:50:36;;;;;;;17.13;10.20;;;17.70;99.90;;;;;;5092191;28;20496;-53
2023/09/11 01:53:04;;;;;;;18.35;10.35;;;16.00;99.90;;;;;;5091768;28;20504;-49
2023/09/11 01:55:32;;;;;;;22.55;10.00;;;18.50;99.90;;;;;;5092118;28;20028;-52
2023/09/11 01:57:58;;;;;;;22.10;10.40;;;18.50;99.90;;;;;;5092169;28;20036;-54
2023/09/11 02:00:24;;;;;;;21.48;11.45;;;;;;;;;;5092134;28;20391;-50
2023/09/11 02:02:54;;;;;;;27.35;10.98;;;19.80;99.90;;;;;;5091918;28;20032;-54
2023/09/11 02:05:20;;;;;;;21.92;9.95;;;16.40;99.90;;;;;;5091890;28;20024;-52
2023/09/11 02:07:46;;;;;;;23.50;10.70;;;;;;;;;;5091667;28;20035;-50
2023/09/11 02:10:11;;;;;;;22.35;10.95;;;20.70;99.90;;;;;;5091938;28;20438;-47
2023/09/11 02:12:37;;;;;;;21.50;10.75;;;18.90;99.90;;;;;;5092022;28;20035;-54
2023/09/11 02:15:04;;;;;;;20.98;10.73;;;20.40;99.90;;;;;;5091687;28;20025;-51
2023/09/11 02:17:30;;;;;;;20.88;10.35;;;;;;;;;;5091588;28;20059;-44
2023/09/11 02:19:56;;;;;;;19.27;10.13;;;;;;;;;;5091395;28;20141;-49
2023/09/11 02:22:21;;;;;;;21.92;10.32;;;18.40;99.90;;;;;;5092140;28;20129;-54
2023/09/11 02:24:47;;;;;;;16.60;8.57;;;15.20;99.90;;;;;;5090706;28;20617;-57
2023/09/11 02:27:12;;;;;;;18.38;10.48;;;19.20;99.90;;;;;;5091798;28;20107;-55
2023/09/11 02:29:38;;;;;;;14.77;8.70;;;16.20;99.90;;;;;;5091633;28;20028;-50
2023/09/11 02:32:04;;;;;;;19.08;9.63;;;18.30;99.90;;;;;;5091395;28;20118;-60
2023/09/11 02:34:30;;;;;;;17.15;9.48;;;18.00;99.90;;;;;;5091340;28;20511;-58
2023/09/11 02:36:55;;;;;;;15.40;8.98;;;18.10;99.90;;;;;;5091457;28;20101;-60
2023/09/11 02:39:21;;;;;;;19.33;8.80;;;17.90;99.90;;;;;;5091340;28;20440;-47
2023/09/11 02:41:46;;;;;;;17.80;9.25;;;19.90;99.90;;;;;;5090918;28;20077;-54
2023/09/11 02:44:12;;;;;;;17.05;9.27;;;17.80;99.90;;;;;;5090876;28;20032;-56
2023/09/11 02:46:37;;;;;;;15.70;8.07;;;15.70;99.90;;;;;;5090965;28;20535;-51
2023/09/11 02:49:03;;;;;;;16.40;8.90;;;17.90;99.90;;;;;;5091123;28;20024;-48
2023/09/11 02:51:30;;;;;;;13.77;8.32;;;18.30;99.90;;;;;;5091350;28;20426;-47
2023/09/11 02:53:56;;;;;;;13.77;8.40;;;14.90;99.90;;;;;;5090448;28;20385;-57
2023/09/11 02:56:22;;;;;;;14.18;8.60;;;20.00;99.90;;;;;;5090320;28;20016;-54
2023/09/11 02:58:48;;;;;;;17.42;8.38;;;;;;;;;;5091283;28;20027;-55
2023/09/11 03:01:14;;;;;;;15.02;8.32;;;;;;;;;;5090865;28;20024;-52
2023/09/11 03:03:39;;;;;;;16.13;8.73;;;15.60;99.90;;;;;;5090768;28;20071;-58
2023/09/11 03:06:05;;;;;;;13.63;8.18;;;18.80;99.90;;;;;;5090660;28;20024;-56
2023/09/11 03:08:31;;;;;;;12.43;7.82;;;18.10;99.90;;;;;;5091115;28;20032;-52
2023/09/11 03:11:05;;;;;;;17.42;8.73;;;18.50;99.90;;;;;;5091000;28;20052;-47
2023/09/11 03:13:31;;;;;;;13.43;8.25;;;18.40;99.90;;;;;;5090399;28;20031;-49
2023/09/11 03:16:09;;;;;;;16.17;8.57;;;17.30;99.90;;;;;;5090293;28;20024;-46
2023/09/11 03:18:35;;;;;;;15.73;8.10;;;18.40;99.90;;;;;;5090338;28;20091;-51
2023/09/11 03:21:02;;;;;;;17.95;9.15;;;15.50;99.90;;;;;;5090802;28;20123;-47
2023/09/11 03:23:28;;;;;;;15.02;8.50;;;15.60;99.90;;;;;;5090732;28;20403;-52
2023/09/11 03:25:54;;;;;;;14.43;7.55;;;19.20;99.90;;;;;;5090602;28;20528;-57
2023/09/11 03:28:20;;;;;;;13.73;7.57;;;19.10;99.90;;;;;;5090214;28;20027;-45
2023/09/11 03:30:45;;;;;;;16.83;7.85;;;15.00;99.90;;;;;;5090152;28;20035;-59
2023/09/11 03:33:11;;;;;;;16.60;8.20;;;19.50;99.90;;;;;;5090472;28;20028;-46
2023/09/11 03:35:36;;;;;;;15.02;8.98;;;14.80;99.90;;;;;;5090089;28;20054;-53
2023/09/11 03:38:02;;;;;;;17.02;9.02;;;19.70;99.90;;;;;;5088705;28;20035;-56
2023/09/11 03:40:29;;;;;;;12.85;8.43;;;17.40;99.90;;;;;;5090102;28;20020;-47
2023/09/11 03:42:54;;;;;;;17.77;8.48;;;18.60;99.90;;;;;;5089832;28;20120;-56
2023/09/11 03:45:20;;;;;;;18.55;9.23;;;14.90;99.90;;;;;;5090297;28;20044;-48
2023/09/11 03:47:46;;;;;;;17.83;8.68;;;18.40;99.90;;;;;;5090425;28;20407;-50
2023/09/11 03:50:11;;;;;;;16.10;9.50;;;14.40;99.90;;;;;;5090360;28;20028;-50
2023/09/11 03:52:37;;;;;;;18.48;9.02;;;14.90;99.90;;;;;;5089210;28;20757;-52
2023/09/11 03:55:03;;;;;;;16.92;9.00;;;17.60;99.90;;;;;;5090234;28;20031;-54
2023/09/11 03:57:29;;;;;;;20.13;9.63;;;14.40;99.90;;;;;;5089895;28;20028;-49
2023/09/11 03:59:54;;;;;;;16.35;9.55;;;18.20;99.90;;;;;;5090091;28;20035;-47
2023/09/11 04:02:20;;;;;;;19.65;9.27;;;;;;;;;;5090288;28;20019;-48
2023/09/11 04:04:46;;;;;;;19.70;9.95;;;17.90;99.90;;;;;;5090301;28;20449;-50
2023/09/11 04:07:12;;;;;;;17.27;9.32;;;18.00;99.90;;;;;;5093189;28;20016;-45
2023/09/11 04:09:37;;;;;;;22.92;10.18;;;15.30;99.90;;;;;;5094218;28;20059;-44
2023/09/11 04:12:03;;;;;;;17.77;9.35;;;14.80;99.90;;;;;;5094390;28;20066;-45
2023/09/11 04:14:29;;;;;;;21.15;10.07;;;17.90;99.90;;;;;;5093837;28;20053;-56
2023/09/11 04:16:55;;;;;;;22.77;10.02;;;15.40;99.90;;;;;;5094226;28;20415;-55
2023/09/11 04:19:21;;;;;;;19.10;9.02;;;18.50;99.90;;;;;;5094155;28;20015;-57
2023/09/11 04:21:47;;;;;;;20.50;9.90;;;;;;;;;;5089915;28;20051;-55
2023/09/11 04:24:13;;;;;;;17.23;9.13;;;20.30;99.90;;;;;;5092173;28;20039;-55
2023/09/11 04:26:40;;;;;;;18.80;9.15;;;14.90;99.90;;;;;;5094088;28;20031;-53
2023/09/11 04:29:06;;;;;;;16.08;9.13;;;19.00;99.90;;;;;;5093479;28;20043;-60
2023/09/11 04:31:32;;;;;;;18.30;9.23;;;;;;;;;;5093837;28;20457;-60
2023/09/11 04:33:57;;;;;;;19.48;9.63;;;15.50;99.90;;;;;;5093727;28;20082;-46
2023/09/11 04:36:23;;;;;;;14.43;8.95;;;19.20;99.90;;;;;;5093896;28;20111;-52
2023/09/11 04:38:49;;;;;;;19.73;9.15;;;19.40;99.90;;;;;;5093594;28;20082;-54
2023/09/11 04:41:15;;;;;;;15.45;8.02;;;17.90;99.90;;;;;;5093743;28;20492;-53
2023/09/11 04:43:41;;;;;;;16.98;9.10;;;19.80;99.90;;;;;;5093261;28;20051;-56
2023/09/11 04:46:07;;;;;;;20.08;9.35;;;18.60;99.90;;;;;;5093904;28;20458;-57
2023/09/11 04:48:33;;;;;;;14.98;8.48;;;;;;;;;;5093445;28;20035;-50
2023/09/11 04:50:59;;;;;;;20.45;8.93;;;19.20;99.90;;;;;;5093600;28;20043;-52
2023/09/11 04:53:25;;;;;;;16.45;8.48;;;;;;;;;;5092900;28;20028;-47
2023/09/11 04:55:51;;;;;;;17.40;8.20;;;19.10;99.90;;;;;;5099543;28;20404;-56
2023/09/11 04:58:17;;;;;;;17.55;8.48;;;;;;;;;;5092888;28;20461;-45
2023/09/11 05:00:42;;;;;;;19.38;9.40;;;15.90;99.90;;;;;;5092998;28;20035;-56
2023/09/11 05:03:08;;;;;;;17.30;9.55;;;;;;;;;;5092964;28;20164;-47
2023/09/11 05:05:40;;;;;;;20.42;9.27;;;19.10;99.90;;;;;;5091640;28;20508;-54
2023/09/11 05:08:06;;;;;;;19.95;9.05;;;20.00;99.90;;;;;;5094157;28;20016;-45
2023/09/11 05:10:32;;;;;;;17.80;9.15;;;14.90;99.90;;;;;;5093095;28;20032;-57
2023/09/11 05:12:58;;;;;;;19.80;8.80;;;19.90;99.90;;;;;;5092658;28;20035;-60
2023/09/11 05:15:23;;;;;;;18.13;9.35;;;14.60;99.90;;;;;;5091746;28;20035;-53
2023/09/11 05:17:50;;;;;;;18.42;8.35;;;18.50;99.90;;;;;;5092160;28;20024;-51
2023/09/11 05:20:16;;;;;;;19.50;9.00;;;18.70;99.90;;;;;;5092961;28;20060;-50
2023/09/11 05:22:42;;;;;;;19.73;8.23;;;18.70;99.90;;;;;;5092690;28;20507;-53
2023/09/11 05:25:08;;;;;;;20.73;9.00;;;18.00;99.90;;;;;;5092304;28;20047;-56
2023/09/11 05:27:34;;;;;;;18.75;8.25;;;17.80;99.90;;;;;;5092624;28;20111;-51
2023/09/11 05:30:00;;;;;;;18.77;7.90;;;19.30;99.90;;;;;;5092375;28;20107;-57
2023/09/11 05:32:25;;;;;;;18.63;9.00;;;19.10;99.90;;;;;;5092101;28;20048;-48
2023/09/11 05:34:54;;;;;;;20.05;9.10;;;19.00;99.90;;;;;;5092155;28;20027;-52
2023/09/11 05:37:19;;;;;;;15.33;7.23;;;19.10;99.90;;;;;;5092003;28;20047;-49
2023/09/11 05:39:46;;;;;;;17.05;8.00;;;18.20;99.90;;;;;;5092557;28;20093;-59
2023/09/11 05:42:12;;;;;;;18.17;8.40;;;;;;;;;;5091864;28;20047;-50
2023/09/11 05:44:38;;;;;;;16.40;8.48;;;19.20;99.90;;;;;;5092010;28;20032;-56
2023/09/11 05:47:04;;;;;;;16.60;8.00;;;19.00;99.90;;;;;;5092289;28;20024;-54
2023/09/11 05:49:29;;;;;;;16.10;7.97;;;19.10;99.90;;;;;;5092031;28;20155;-53
2023/09/11 05:51:57;;;;;;;18.30;8.02;;;19.00;99.90;;;;;;5092033;28;20112;-47
2023/09/11 05:54:22;;;;;;;16.90;7.65;;;20.40;99.90;;;;;;5092531;28;20051;-47
2023/09/11 05:56:48;;;;;;;13.30;7.25;;;19.40;99.90;;;;;;5091836;28;20481;-53
2023/09/11 05:59:18;;;;;;;13.70;6.25;;;18.90;99.90;;;;;;5092266;28;20107;-52
2023/09/11 06:01:45;;;;;;;16.88;7.60;;;;;;;;;;5091843;28;20016;-52
2023/09/11 06:04:11;;;;;;;15.32;7.55;;;18.10;99.90;;;;;;5091983;28;20189;-51
2023/09/11 06:06:37;;;;;;;12.65;6.68;;;19.00;99.90;;;;;;5092038;28;20020;-52
2023/09/11 06:09:06;;;;;;;12.55;6.75;;;19.40;99.90;;;;;;5091786;28;20067;-60
2023/09/11 06:11:32;;;;;;;15.75;7.15;;;20.30;99.90;;;;;;5091493;28;20051;-46
2023/09/11 06:13:57;;;;;;;14.90;7.20;;;19.80;99.90;;;;;;5091801;28;20051;-52
2023/09/11 06:16:23;;;;;;;14.65;7.00;;;15.00;99.90;;;;;;5091675;28;20028;-46
2023/09/11 06:18:49;;;;;;;11.75;6.30;;;19.70;99.90;;;;;;5091253;28;20024;-58
2023/09/11 06:21:15;;;;;;;15.00;7.05;;;;;;;;;;5120482;27;20028;-49
2023/09/11 06:23:41;;;;;;;13.15;6.82;;;19.40;99.90;;;;;;5091187;28;20050;-63
2023/09/11 06:26:07;;;;;;;13.52;5.78;;;;;;;;;;5091286;28;20464;-50
2023/09/11 06:28:32;;;;;;;14.73;6.80;;;19.30;99.90;;;;;;5091324;28;20067;-50
2023/09/11 06:30:59;;;;;;;16.27;7.68;;;;;;;;;;5090965;28;20043;-46
2023/09/11 06:33:27;;;;;;;14.73;7.18;;;;;;;;;;5090552;28;20044;-58
2023/09/11 06:35:54;;;;;;;16.23;7.55;;;18.70;99.90;;;;;;5088846;28;20365;-46
2023/09/11 06:38:20;;;;;;;13.60;6.57;;;19.30;99.90;;;;;;5088901;28;20023;-44
2023/09/11 06:40:45;;;;;;;13.40;6.45;;;20.30;99.90;;;;;;5090184;28;20438;-53
2023/09/11 06:43:11;;;;;;;13.48;6.60;;;;;;;;;;5090559;28;20075;-48
2023/09/11 06:45:38;;;;;;;13.18;6.68;;;;;;;;;;5094175;28;20059;-47
2023/09/11 06:48:04;;;;;;;13.35;6.38;;;;;;;;;;5087990;28;20043;-50
2023/09/11 06:50:30;;;;;;;11.85;6.30;;;15.50;99.90;;;;;;5091091;28;20424;-61
2023/09/11 06:52:56;;;;;;;10.25;6.35;;;;;;;;;;5090817;28;20024;-49
2023/09/11 06:55:22;;;;;;;11.27;6.45;;;19.00;99.90;;;;;;5090400;28;20024;-57
2023/09/11 06:58:00;;;;;;;12.60;6.50;;;19.70;99.90;;;;;;5090570;28;20027;-50
2023/09/11 07:00:26;;;;;;;10.30;5.85;;;;;;;;;;5083975;28;20484;-55
2023/09/11 07:02:51;;;;;;;13.50;6.22;;;19.30;99.90;;;;;;5090188;28;20560;-48
2023/09/11 07:05:18;;;;;;;12.82;6.22;;;19.30;99.90;;;;;;5090107;28;20115;-54
2023/09/11 07:07:44;;;;;;;13.40;6.07;;;19.70;99.90;;;;;;5090532;28;20022;-53
2023/09/11 07:10:15;;;;;;;11.75;6.40;;;19.10;99.90;;;;;;5121824;27;20020;-50
2023/09/11 07:12:41;;;;;;;14.05;6.20;;;19.10;99.90;;;;;;5090012;28;20050;-50
2023/09/11 07:15:07;;;;;;;13.55;6.13;;;20.30;99.90;;;;;;5089846;28;20045;-55
2023/09/11 07:17:33;;;;;;;11.18;5.85;;;21.50;99.90;;;;;;5093078;28;20028;-53
2023/09/11 07:19:59;;;;;;;16.15;6.57;;;;;;;;;;5090143;28;20161;-52
2023/09/11 07:22:24;;;;;;;9.57;6.13;;;19.40;99.90;;;;;;5122438;27;20032;-55
2023/09/11 07:24:50;;;;;;;12.35;6.43;;;19.90;99.90;;;;;;5090027;28;20133;-56
2023/09/11 07:27:15;;;;;;;13.10;6.00;;;20.00;99.90;;;;;;5090296;28;20052;-54
2023/09/11 07:29:41;;;;;;;15.60;6.40;;;22.90;99.90;;;;;;5090408;28;20036;-49
2023/09/11 07:32:08;;;;;;;15.40;6.65;;;21.00;99.90;;;;;;5090029;28;20020;-55
2023/09/11 07:34:33;;;;;;;13.73;6.25;;;20.60;99.90;;;;;;5091144;28;20056;-54
2023/09/11 07:36:59;;;;;;;16.02;6.88;;;20.80;99.90;;;;;;5093406;28;20514;-55
2023/09/11 07:39:24;;;;;;;14.10;6.43;;;21.20;99.90;;;;;;5092393;28;20027;-48
2023/09/11 07:41:51;;;;;;;15.50;6.13;;;22.40;99.90;;;;;;5092420;28;20073;-47
2023/09/11 07:44:16;;;;;;;12.32;5.55;;;23.30;99.90;;;;;;5099980;28;20036;-47
2023/09/11 07:46:42;;;;;;;10.50;5.57;;;23.20;99.90;;;;;;5089951;28;20074;-53
2023/09/11 07:49:08;;;;;;;10.80;5.28;;;23.80;99.90;;;;;;5092763;28;20036;-49
2023/09/11 07:51:34;;;;;;;10.60;5.95;;;24.30;99.90;;;;;;5089992;28;20494;-47
2023/09/11 07:53:59;;;;;;;13.45;5.53;;;24.10;99.90;;;;;;5089899;28;20115;-59
2023/09/11 07:56:25;;;;;;;12.70;5.53;;;;;;;;;;5085487;28;20020;-56
2023/09/11 07:58:51;;;;;;;8.18;4.53;;;25.30;99.90;;;;;;5086663;28;20032;-60
2023/09/11 08:01:21;;;;;;;9.93;5.30;;;24.90;99.90;;;;;;5089602;28;20046;-62
2023/09/11 08:03:47;;;;;;;10.23;5.30;;;26.10;99.90;;;;;;5089475;28;20082;-51
2023/09/11 08:06:13;;;;;;;13.27;6.20;;;27.40;99.90;;;;;;5097362;28;20020;-57
2023/09/11 08:08:39;;;;;;;9.20;5.93;;;26.40;99.90;;;;;;5089536;28;20058;-56
2023/09/11 08:11:16;;;;;;;12.27;5.57;;;26.40;99.90;;;;;;5087399;28;20028;-52
2023/09/11 08:13:42;;;;;;;9.55;5.70;;;26.00;99.90;;;;;;5085382;28;20504;-56
2023/09/11 08:16:08;;;;;;;9.85;4.93;;;26.60;99.90;;;;;;5122162;27;20028;-51
2023/09/11 08:18:34;;;;;;;10.23;5.03;;;26.60;99.90;;;;;;5089226;28;20055;-49
2023/09/11 08:21:00;;;;;;;10.10;5.05;;;24.30;99.90;;;;;;5092826;28;20056;-48
2023/09/11 08:23:25;;;;;;;8.52;4.70;;;26.90;99.90;;;;;;5087793;28;20070;-56
2023/09/11 08:25:56;;;;;;;8.35;4.40;;;22.40;99.90;;;;;;5098638;28;20395;-49
2023/09/11 08:28:22;;;;;;;8.70;5.10;;;25.00;99.90;;;;;;5089269;28;20028;-49
2023/09/11 08:30:47;;;;;;;9.57;4.75;;;26.10;99.90;;;;;;5089443;28;20081;-55
2023/09/11 08:33:13;;;;;;;7.80;4.88;;;27.10;99.90;;;;;;5091616;28;20024;-58
2023/09/11 08:35:38;;;;;;;8.82;4.25;;;23.90;99.90;;;;;;5089548;28;20043;-54
2023/09/11 08:38:04;;;;;;;10.68;5.70;;;;;;;;;;5089686;28;20504;-50
2023/09/11 08:40:30;;;;;;;7.43;4.30;;;25.20;99.90;;;;;;5094294;28;20531;-54
2023/09/11 08:42:57;;;;;;;7.90;4.55;;;23.80;99.90;;;;;;5091414;28;20089;-49
2023/09/11 08:45:25;;;;;;;11.52;4.80;;;23.20;99.90;;;;;;5090767;28;20488;-56
2023/09/11 08:47:54;;;;;;;7.67;4.60;;;26.00;99.90;;;;;;5090722;28;20020;-55
2023/09/11 08:50:22;;;;;;;8.40;4.50;;;25.10;99.90;;;;;;5088340;28;20296;-55
2023/09/11 08:52:49;;;;;;;8.65;4.28;;;26.10;99.90;;;;;;5090302;28;20055;-54
2023/09/11 08:55:19;;;;;;;10.93;4.90;;;27.50;99.90;;;;;;5091891;28;20020;-58
2023/09/11 08:57:45;;;;;;;8.77;5.10;;;;;;;;;;5093017;28;20016;-62
2023/09/11 09:00:13;;;;;;;7.80;4.80;;;26.80;99.90;;;;;;5092569;28;20023;-50
2023/09/11 09:02:39;;;;;;;11.80;5.30;;;26.50;99.90;;;;;;5093198;28;20111;-57
2023/09/11 09:05:06;;;;;;;13.05;5.00;;;26.00;99.90;;;;;;5092414;28;20127;-56
2023/09/11 09:07:32;;;;;;;7.80;4.93;;;26.30;99.90;;;;;;5092705;28;20028;-62
2023/09/11 09:09:58;;;;;;;9.73;5.07;;;27.00;99.90;;;;;;5094089;28;20032;-58
2023/09/11 09:12:26;;;;;;;9.23;5.20;;;22.20;99.90;;;;;;5091725;28;20110;-58
2023/09/11 09:14:52;;;;;;;8.02;4.68;;;26.40;99.90;;;;;;5090529;28;20039;-58
2023/09/11 09:17:17;;;;;;;8.70;4.90;;;26.70;99.90;;;;;;5090775;28;20063;-61
2023/09/11 09:19:43;;;;;;;13.13;4.45;;;23.80;99.90;;;;;;5087656;28;20020;-60
2023/09/11 09:22:10;;;;;;;7.60;4.38;;;27.10;99.90;;;;;;5090965;28;20028;-56
2023/09/11 09:24:54;;;;;;;7.60;4.63;;;27.80;99.90;;;;;;5090879;28;20036;-47
2023/09/11 09:27:21;;;;;;;9.38;4.65;;;27.20;99.90;;;;;;5092424;28;20534;-61
2023/09/11 09:29:48;;;;;;;7.13;4.43;;;27.10;99.90;;;;;;5091081;28;20661;-53
2023/09/11 09:32:14;;;;;;;7.28;3.80;;;29.50;99.90;;;;;;5091949;28;20049;-60
2023/09/11 09:34:54;;;;;;;6.20;3.97;;;25.30;99.90;;;;;;5094376;28;20020;-55
2023/09/11 09:37:21;;;;;;;10.98;4.57;;;27.00;99.90;;;;;;5087580;28;20081;-54
2023/09/11 09:39:48;;;;;;;7.40;4.22;;;26.60;99.90;;;;;;5099274;28;20024;-57
2023/09/11 09:42:14;;;;;;;8.95;4.43;;;26.30;99.90;;;;;;5092494;28;20071;-60
2023/09/11 09:44:42;;;;;;;7.85;4.15;;;25.80;99.90;;;;;;5091765;28;20032;-56
2023/09/11 09:47:19;;;;;;;9.10;3.75;;;23.20;99.90;;;;;;5099741;28;20050;-50
2023/09/11 09:49:52;;;;;;;5.53;3.13;;;26.40;99.90;;;;;;5089385;28;20040;-61
2023/09/11 09:52:20;;;;;;;7.63;3.70;;;27.20;99.90;;;;;;5092971;28;21858;-58
2023/09/11 09:54:51;;;;;;;8.80;4.18;;;25.10;99.90;;;;;;5091477;28;20081;-57
2023/09/11 09:57:21;;;;;;;6.50;4.18;;;26.30;99.90;;;;;;5086547;28;20035;-59
2023/09/11 09:59:53;;;;;;;8.70;3.95;;;25.60;99.90;;;;;;5092378;28;20032;-55
2023/09/11 10:02:32;;;;;;;5.30;3.50;;;26.80;99.90;;;;;;5091472;28;20101;-59
2023/09/11 10:05:02;;;;;;;7.50;3.70;;;24.10;99.90;;;;;;5091526;28;20061;-54
2023/09/11 10:07:45;;;;;;;6.13;3.05;;;26.00;99.90;;;;;;5078435;28;20031;-56
2023/09/11 10:10:30;;;;;;;4.63;2.95;;;26.70;99.90;;;;;;5091981;28;20137;-57
2023/09/11 10:13:12;;;;;;;4.55;2.28;;;23.10;99.90;;;;;;5087930;28;20019;-59
2023/09/11 10:15:39;;;;;;;4.00;2.72;;;26.10;99.90;;;;;;5090558;28;20024;-57
2023/09/11 10:18:06;;;;;;;4.45;2.55;;;26.70;99.90;;;;;;5091262;28;20042;-58
2023/09/11 10:20:32;;;;;;;3.95;2.30;;;23.90;99.90;;;;;;5091269;28;20032;-53
2023/09/11 10:23:00;;;;;;;3.90;1.95;;;23.40;99.90;;;;;;5090928;28;20020;-63
2023/09/11 10:25:29;;;;;;;3.38;1.35;;;27.50;99.90;;;;;;5090536;28;20038;-58
2023/09/11 10:28:00;;;;;;;3.47;2.10;;;26.40;99.90;;;;;;5091399;28;20082;-59
2023/09/11 10:30:34;;;;;;;4.05;1.65;;;28.30;99.90;;;;;;5094468;28;20103;-56
2023/09/11 10:33:01;;;;;;;2.53;1.63;;;28.80;99.90;;;;;;5091341;28;20111;-60
2023/09/11 10:35:33;;;;;;;3.38;1.40;;;29.70;99.90;;;;;;5092189;28;20051;-59
2023/09/11 10:38:00;;;;;;;2.90;1.50;;;29.00;99.90;;;;;;5093470;28;20131;-55
2023/09/11 10:40:31;;;;;;;3.10;1.65;;;29.30;99.90;;;;;;5097103;28;20028;-62
2023/09/11 10:42:57;;;;;;;1.98;1.25;;;29.90;99.90;;;;;;5101386;28;20113;-57
2023/09/11 10:45:32;;;;;;;2.47;1.30;;;29.50;99.90;;;;;;5101160;28;20511;-59
2023/09/11 10:47:57;;;;;;;3.97;1.25;;;30.30;99.90;;;;;;5098086;28;20019;-56
2023/09/11 10:50:43;;;;;;;3.10;1.30;;;28.80;99.90;;;;;;5091094;28;20028;-53
2023/09/11 10:53:09;;;;;;;1.52;1.10;;;29.20;99.60;;;;;;5088517;28;20038;-60
2023/09/11 10:55:35;;;;;;;2.25;1.33;;;29.40;99.90;;;;;;5091233;28;20036;-49
2023/09/11 10:58:05;;;;;;;3.03;1.42;;;29.00;98.80;;;;;;5094449;28;20417;-57
2023/09/11 11:00:37;;;;;;;2.60;1.20;;;28.90;99.90;;;;;;5100640;28;20024;-57
2023/09/11 11:03:04;;;;;;;2.38;1.00;;;28.90;98.80;;;;;;5082429;28;20004;-54
2023/09/11 11:05:32;;;;;;;2.30;1.17;;;29.00;99.50;;;;;;5090891;28;20456;-52
2023/09/11 11:07:57;;;;;;;2.58;1.17;;;29.50;99.30;;;;;;5090787;28;20012;-57
2023/09/11 11:10:23;;;;;;;3.33;1.30;;;;;;;;;;5090873;28;20449;-56
2023/09/11 11:13:05;;;;;;;1.92;1.10;;;30.30;99.90;;;;;;5094388;28;20026;-61
2023/09/11 11:15:31;;;;;;;1.48;0.98;;;29.60;98.80;;;;;;5103081;28;20436;-55
2023/09/11 11:18:12;;;;;;;3.97;1.17;;;30.00;98.60;;;;;;5096743;28;20471;-55
2023/09/11 11:21:05;;;;;;;1.20;0.85;;;30.20;97.70;;;;;;5102181;28;20034;-52
2023/09/11 11:23:33;;;;;;;3.47;1.10;;;30.20;97.80;;;;;;5099247;28;20034;-52
2023/09/11 11:26:06;;;;;;;1.52;0.90;;;30.90;98.90;;;;;;5099547;28;20024;-51
2023/09/11 11:28:42;;;;;;;2.05;0.93;;;31.00;98.70;;;;;;5105237;28;20027;-49
2023/09/11 11:31:09;;;;;;;2.78;1.10;;;30.70;95.80;;;;;;5101620;28;20024;-58
2023/09/11 11:33:39;;;;;;;1.42;0.80;;;30.00;97.60;;;;;;5090651;28;20027;-48
2023/09/11 11:36:06;;;;;;;2.10;1.10;;;29.80;96.70;;;;;;5097899;28;20024;-58
2023/09/11 11:38:33;;;;;;;1.23;0.85;;;28.20;97.50;;;;;;5104300;28;20028;-51
2023/09/11 11:41:00;;;;;;;2.88;1.10;;;31.80;97.30;;;;;;5090717;28;20426;-47
2023/09/11 11:43:27;;;;;;;3.08;1.17;;;30.80;96.80;;;;;;5101845;28;20044;-49
2023/09/11 11:45:55;;;;;;;2.03;1.05;;;30.60;96.10;;;;;;5094390;28;20072;-58
2023/09/11 11:48:21;;;;;;;3.28;1.02;;;30.00;96.20;;;;;;5104743;28;20043;-57
2023/09/11 11:50:47;;;;;;;1.73;0.90;;;31.40;97.10;;;;;;5103128;28;20468;-56
2023/09/11 11:53:18;;;;;;;1.95;0.80;;;30.20;96.40;;;;;;5092265;28;20499;-60
2023/09/11 11:55:44;;;;;;;1.67;0.80;;;32.20;96.00;;;;;;5099403;28;20039;-58
2023/09/11 11:58:12;;;;;;;3.15;1.10;;;30.30;95.60;;;;;;5099267;28;20027;-54
2023/09/11 12:00:38;;;;;;;2.20;1.40;;;30.50;95.50;;;;;;5104335;28;20035;-50
2023/09/11 12:03:08;;;;;;;3.20;1.10;;;30.50;95.60;;;;;;5105119;28;20103;-48
2023/09/11 12:05:43;;;;;;;1.50;0.82;;;30.40;95.80;;;;;;5092288;28;20036;-47
2023/09/11 12:08:12;;;;;;;2.55;1.00;;;27.10;94.20;;;;;;5092146;28;20370;-55
2023/09/11 12:10:48;;;;;;;1.38;0.80;;;28.00;96.90;;;;;;5087730;28;20114;-60
2023/09/11 12:13:14;;;;;;;0.82;0.70;;;30.70;96.60;;;;;;5088837;28;20143;-59
2023/09/11 12:15:40;;;;;;;1.75;0.80;;;28.60;95.50;;;;;;5090306;28;20043;-55
2023/09/11 12:18:06;;;;;;;1.77;0.90;;;30.30;97.00;;;;;;5090168;28;20028;-59
2023/09/11 12:20:32;;;;;;;1.35;0.80;;;30.50;96.90;;;;;;5094913;28;20032;-58
2023/09/11 12:23:01;;;;;;;1.98;0.90;;;29.70;95.50;;;;;;5090580;28;20020;-60
2023/09/11 12:25:27;;;;;;;3.28;1.33;;;30.40;96.60;;;;;;5092966;28;20091;-59
2023/09/11 12:27:54;;;;;;;2.10;1.25;;;30.40;96.30;;;;;;5092842;28;20088;-59
2023/09/11 12:30:20;;;;;;;2.80;1.48;;;29.20;95.60;;;;;;5093926;28;20122;-58
2023/09/11 12:32:46;;;;;;;3.63;1.60;;;29.40;97.90;;;;;;5101771;28;20024;-50
2023/09/11 12:35:11;;;;;;;2.58;1.70;;;29.10;97.60;;;;;;5094017;28;20024;-57
2023/09/11 12:37:40;;;;;;;4.22;2.03;;;28.40;98.30;;;;;;5099186;28;20020;-49
2023/09/11 12:40:09;;;;;;;2.20;1.55;;;29.20;99.70;;;;;;5103386;28;20028;-63
2023/09/11 12:42:38;;;;;;;2.97;1.92;;;28.70;99.90;;;;;;5096498;28;20032;-45
2023/09/11 12:45:04;;;;;;;3.72;1.65;;;28.50;98.10;;;;;;5093485;28;20115;-60
2023/09/11 12:47:32;;;;;;;3.13;1.92;;;28.20;98.40;;;;;;5093997;28;20089;-58
2023/09/11 12:49:57;;;;;;;3.47;1.73;;;28.60;99.70;;;;;;5097087;28;20023;-57